Time;durP1;ratioP1;P1;durP2;ratioP2;P2;SDS_P1;SDS_P2;PMS_P1;PMS_P2;Temp;Humidity;BMP_temperature;BMP_pressure;BME280_temperature;BME280_humidity;BME280_pressure;Samples;Min_cycle;Max_cycle;Signal;HPM_P1;HPM_P2
2021/12/29 00:00:24;;;;;;;86.00;50.83;;;;;;;;;;6123195;23;20365;-95
2021/12/29 00:02:51;;;;;;;82.65;48.42;;;;;;;;;;6123238;23;20395;-94
2021/12/29 00:05:18;;;;;;;81.40;48.97;;;;;;;;;;6122662;23;20475;-95
2021/12/29 00:07:45;;;;;;;85.23;49.57;;;;;;;;;;6121825;23;20365;-95
2021/12/29 00:10:15;;;;;;;86.38;49.20;;;;;;;;;;6123228;23;20455;-96
2021/12/29 00:12:46;;;;;;;87.68;51.78;;;;;;;;;;6124258;23;20368;-95
2021/12/29 00:15:15;;;;;;;87.55;51.30;;;;;;;;;;6123242;23;20456;-95
2021/12/29 00:17:44;;;;;;;86.22;51.45;;;;;;;;;;6097553;23;20368;-95
2021/12/29 00:20:12;;;;;;;83.80;48.93;;;;;;;;;;6122473;23;20409;-95
2021/12/29 00:22:39;;;;;;;83.70;49.30;;;;;;;;;;6122443;23;20416;-93
2021/12/29 00:25:09;;;;;;;85.65;49.97;;;;;;;;;;6122495;23;20655;-95
2021/12/29 00:27:38;;;;;;;92.03;52.05;;;;;;;;;;6122669;23;20363;-94
2021/12/29 00:30:07;;;;;;;94.30;52.53;;;;;;;;;;6121386;23;20387;-95
2021/12/29 00:32:34;;;;;;;94.10;53.78;;;;;;;;;;6121077;23;20422;-94
2021/12/29 00:35:01;;;;;;;98.47;56.05;;;;;;;;;;6122002;23;20719;-95
2021/12/29 00:37:28;;;;;;;102.05;56.38;;;;;;;;;;6097304;23;20367;-96
2021/12/29 00:39:55;;;;;;;90.97;53.05;;;;;;;;;;6122579;23;20426;-95
2021/12/29 00:42:22;;;;;;;94.83;53.27;;;;;;;;;;6097802;23;20383;-96
2021/12/29 00:44:51;;;;;;;84.28;49.88;;;;;;;;;;6122560;23;20783;-95
2021/12/29 00:47:19;;;;;;;95.82;53.22;;;;;;;;;;6122683;23;20757;-95
2021/12/29 00:49:47;;;;;;;84.27;51.57;;;;;;;;;;6120505;23;20375;-95
2021/12/29 00:52:14;;;;;;;84.38;49.78;;;;;;;;;;6122728;23;20381;-96
2021/12/29 00:54:44;;;;;;;86.93;49.95;;;;;;;;;;6122677;23;20375;-96
2021/12/29 00:57:12;;;;;;;87.13;50.67;;;;;;;;;;6123072;23;20375;-96
2021/12/29 00:59:39;;;;;;;87.72;50.10;;;;;;;;;;6121576;23;20429;-95
2021/12/29 01:02:09;;;;;;;94.97;54.70;;;;;;;;;;6121800;23;20474;-95
2021/12/29 01:04:37;;;;;;;87.55;51.72;;;;;;;;;;6121700;23;20367;-96
2021/12/29 01:07:04;;;;;;;95.70;53.80;;;;;;;;;;6121879;23;20363;-96
2021/12/29 01:09:32;;;;;;;89.63;53.25;;;;;;;;;;6122763;23;20366;-95
2021/12/29 01:12:00;;;;;;;83.55;49.63;;;;;;;;;;6122070;23;20470;-95
2021/12/29 01:14:30;;;;;;;80.60;46.58;;;;;;;;;;6121631;23;20407;-95
2021/12/29 01:16:57;;;;;;;76.27;46.37;;;;;;;;;;6120600;23;20394;-95
2021/12/29 01:19:28;;;;;;;79.72;47.30;;;;;;;;;;6121656;23;20495;-96
2021/12/29 01:21:58;;;;;;;80.28;48.28;;;;;;;;;;6121650;23;20383;-95
2021/12/29 01:24:27;;;;;;;84.60;48.80;;;;;;;;;;6122246;23;20438;-95
2021/12/29 01:26:55;;;;;;;75.72;49.13;;;;;;;;;;6120199;23;20385;-95
2021/12/29 01:29:23;;;;;;;73.10;48.03;;;;;;;;;;6122168;23;20403;-95
2021/12/29 01:31:50;;;;;;;71.78;48.17;;;;;;;;;;6121274;23;20764;-95
2021/12/29 01:34:17;;;;;;;72.67;47.60;;;;;;;;;;6095712;23;20371;-95
2021/12/29 01:36:46;;;;;;;72.43;47.67;;;;;;;;;;6095310;23;20367;-94
2021/12/29 01:39:15;;;;;;;76.93;50.33;;;;;;;;;;6122464;23;20369;-95
2021/12/29 01:41:43;;;;;;;73.65;50.80;;;;;;;;;;6121946;23;20850;-94
2021/12/29 01:44:12;;;;;;;70.07;48.53;;;;;;;;;;6121693;23;20390;-93
2021/12/29 01:46:41;;;;;;;73.15;48.67;;;;;;;;;;6121195;23;20371;-95
2021/12/29 01:49:08;;;;;;;66.95;45.65;;;;;;;;;;6120145;23;20430;-95
2021/12/29 01:51:36;;;;;;;68.70;45.80;;;;;;;;;;6120686;23;20775;-95
2021/12/29 01:54:15;;;;;;;66.60;44.50;;;;;;;;;;6121174;23;20379;-95
2021/12/29 01:56:44;;;;;;;65.97;44.75;;;;;;;;;;6120890;23;20445;-94
2021/12/29 01:59:13;;;;;;;63.80;43.08;;;;;;;;;;6121528;23;20859;-95
2021/12/29 02:01:40;;;;;;;63.90;41.58;;;;;;;;;;6121625;23;20421;-94
2021/12/29 02:04:07;;;;;;;61.17;39.67;;;;;;;;;;6121983;23;20395;-95
2021/12/29 02:06:34;;;;;;;58.75;40.55;;;;;;;;;;6121947;23;20367;-94
2021/12/29 02:09:02;;;;;;;63.75;41.75;;;;;;;;;;6122434;23;20375;-95
2021/12/29 02:11:31;;;;;;;60.70;40.53;;;;;;;;;;6096146;23;20784;-94
2021/12/29 02:13:59;;;;;;;65.10;40.50;;;;;;;;;;6095807;23;20367;-95
2021/12/29 02:16:27;;;;;;;59.30;39.03;;;;;;;;;;6121212;23;20375;-94
2021/12/29 02:18:55;;;;;;;59.88;38.72;;;;;;;;;;6121623;23;20367;-94
2021/12/29 02:21:26;;;;;;;62.33;39.90;;;;;;;;;;6121866;23;20362;-94
2021/12/29 02:24:16;;;;;;;68.15;41.38;;;;;;;;;;6121368;23;20394;-95
2021/12/29 02:26:45;;;;;;;66.13;41.90;;;;;;;;;;6121323;23;20879;-94
2021/12/29 02:29:14;;;;;;;67.53;41.17;;;;;;;;;;6121829;23;20370;-94
2021/12/29 02:31:42;;;;;;;67.40;40.60;;;;;;;;;;6119020;23;20371;-95
2021/12/29 02:34:14;;;;;;;65.20;40.25;;;;;;;;;;6120063;23;20379;-95
2021/12/29 02:36:45;;;;;;;65.22;41.47;;;;;;;;;;6121435;23;20370;-94
2021/12/29 02:39:17;;;;;;;66.70;40.70;;;;;;;;;;6122082;23;20375;-95
2021/12/29 02:41:49;;;;;;;73.70;42.55;;;;;;;;;;6123218;23;20366;-94
2021/12/29 02:44:21;;;;;;;74.93;42.67;;;;;;;;;;6131865;23;20389;-95
2021/12/29 02:46:48;;;;;;;74.87;43.33;;;;;;;;;;6137162;23;20513;-95
2021/12/29 02:49:15;;;;;;;76.27;44.37;;;;;;;;;;6120203;23;20371;-95
2021/12/29 02:51:44;;;;;;;75.00;41.88;;;;;;;;;;6120899;23;20414;-95
2021/12/29 02:54:12;;;;;;;71.15;42.08;;;;;;;;;;6120882;23;20374;-95
2021/12/29 02:56:39;;;;;;;77.18;42.45;;;;;;;;;;6120373;23;20374;-95
2021/12/29 02:59:06;;;;;;;70.40;42.83;;;;;;;;;;6095948;23;20363;-94
2021/12/29 03:01:33;;;;;;;67.22;39.45;;;;;;;;;;6117410;23;20366;-95
2021/12/29 03:04:04;;;;;;;66.50;40.67;;;;;;;;;;6118306;23;20886;-95
2021/12/29 03:06:32;;;;;;;65.47;40.58;;;;;;;;;;6118999;23;20422;-95
2021/12/29 03:09:01;;;;;;;67.28;41.25;;;;;;;;;;6119587;23;20733;-94
2021/12/29 03:11:28;;;;;;;69.57;41.72;;;;;;;;;;6118715;23;20363;-95
2021/12/29 03:13:55;;;;;;;73.43;43.22;;;;;;;;;;6118304;23;20367;-95
2021/12/29 03:16:22;;;;;;;77.70;44.30;;;;;;;;;;6119147;23;20405;-94
2021/12/29 03:18:49;;;;;;;77.63;43.13;;;;;;;;;;6118143;23;20375;-95
2021/12/29 03:21:17;;;;;;;76.82;43.13;;;;;;;;;;6118814;23;20378;-94
2021/12/29 03:23:44;;;;;;;82.88;44.72;;;;;;;;;;6118813;23;20375;-95
2021/12/29 03:26:13;;;;;;;80.30;44.28;;;;;;;;;;6119432;23;20374;-95
2021/12/29 03:28:40;;;;;;;77.25;42.28;;;;;;;;;;6119732;23;20367;-95
2021/12/29 03:31:10;;;;;;;71.82;42.05;;;;;;;;;;6119932;23;20442;-95
2021/12/29 03:33:38;;;;;;;68.70;42.85;;;;;;;;;;6120620;23;20443;-95
2021/12/29 03:36:06;;;;;;;66.85;40.35;;;;;;;;;;6119955;23;20907;-95
2021/12/29 03:38:36;;;;;;;65.05;39.45;;;;;;;;;;6119900;23;20382;-95
2021/12/29 03:41:06;;;;;;;73.95;41.65;;;;;;;;;;6120443;23;20392;-95
2021/12/29 03:43:35;;;;;;;65.53;40.75;;;;;;;;;;6120142;23;20391;-95
2021/12/29 03:46:03;;;;;;;61.38;39.50;;;;;;;;;;6119657;23;20441;-95
2021/12/29 03:48:31;;;;;;;56.33;37.92;;;;;;;;;;6120633;23;20390;-95
2021/12/29 03:51:00;;;;;;;56.07;36.03;;;;;;;;;;6094324;23;20678;-95
2021/12/29 03:53:27;;;;;;;58.90;37.38;;;;;;;;;;6121418;23;20383;-95
2021/12/29 03:55:55;;;;;;;59.55;37.72;;;;;;;;;;6120903;23;20414;-95
2021/12/29 03:58:23;;;;;;;57.88;36.45;;;;;;;;;;6121300;23;20371;-95
2021/12/29 04:00:55;;;;;;;58.07;36.83;;;;;;;;;;6120764;23;20383;-95
2021/12/29 04:03:22;;;;;;;56.35;37.42;;;;;;;;;;6119873;23;20370;-96
2021/12/29 04:05:49;;;;;;;54.75;38.17;;;;;;;;;;6120277;23;20434;-95
2021/12/29 04:08:17;;;;;;;54.93;37.73;;;;;;;;;;6119966;23;20852;-96
2021/12/29 04:10:44;;;;;;;51.65;35.78;;;;;;;;;;6120207;23;20375;-96
2021/12/29 04:13:12;;;;;;;49.67;35.47;;;;;;;;;;6092496;23;20927;-96
2021/12/29 04:15:38;;;;;;;46.88;34.83;;;;;;;;;;6118625;23;20370;-95
2021/12/29 04:18:15;;;;;;;47.35;34.03;;;;;;;;;;6119989;23;20379;-96
2021/12/29 04:20:57;;;;;;;44.28;32.83;;;;;;;;;;6119361;23;20379;-96
2021/12/29 04:23:26;;;;;;;41.03;32.90;;;;;;;;;;6094167;23;20371;-96
2021/12/29 04:25:54;;;;;;;39.60;31.50;;;;;;;;;;6119422;23;20788;-96
2021/12/29 04:28:23;;;;;;;39.92;31.00;;;;;;;;;;6118894;23;20497;-95
2021/12/29 04:30:52;;;;;;;41.83;31.73;;;;;;;;;;6092121;23;20375;-96
2021/12/29 04:33:21;;;;;;;43.20;31.23;;;;;;;;;;6117598;23;20432;-96
2021/12/29 04:35:48;;;;;;;41.13;31.05;;;;;;;;;;6118064;23;20882;-95
2021/12/29 04:38:16;;;;;;;43.13;31.35;;;;;;;;;;6119484;23;20366;-93
2021/12/29 04:40:43;;;;;;;46.92;32.05;;;;;;;;;;6119793;23;20363;-96
2021/12/29 04:43:10;;;;;;;53.28;33.95;;;;;;;;;;6119797;23;20372;-95
2021/12/29 04:45:38;;;;;;;46.15;31.85;;;;;;;;;;6119199;23;20764;-96
2021/12/29 04:48:12;;;;;;;53.67;34.30;;;;;;;;;;6119867;23;20410;-95
2021/12/29 04:50:44;;;;;;;52.55;34.17;;;;;;;;;;6118634;23;20371;-95
2021/12/29 04:53:11;;;;;;;50.55;32.40;;;;;;;;;;6119849;23;20403;-96
2021/12/29 04:55:39;;;;;;;45.67;31.90;;;;;;;;;;6119980;23;20399;-96
2021/12/29 04:58:07;;;;;;;43.63;31.02;;;;;;;;;;6120035;23;20435;-93
2021/12/29 05:00:34;;;;;;;40.47;29.58;;;;;;;;;;6120745;23;20371;-95
2021/12/29 05:03:01;;;;;;;42.00;30.80;;;;;;;;;;6119653;23;20394;-95
2021/12/29 05:05:51;;;;;;;45.10;30.83;;;;;;;;;;6118403;23;20391;-96
2021/12/29 05:08:29;;;;;;;42.20;31.02;;;;;;;;;;6120915;23;20717;-95
2021/12/29 05:11:02;;;;;;;45.83;31.42;;;;;;;;;;6095981;23;20848;-95
2021/12/29 05:13:31;;;;;;;46.78;31.95;;;;;;;;;;6119583;23;20450;-95
2021/12/29 05:15:58;;;;;;;45.50;31.05;;;;;;;;;;6093932;23;20434;-95
2021/12/29 05:18:27;;;;;;;42.30;31.05;;;;;;;;;;6119323;23;20382;-96
2021/12/29 05:20:54;;;;;;;42.72;29.92;;;;;;;;;;6093540;23;20773;-95
2021/12/29 05:23:23;;;;;;;45.63;31.13;;;;;;;;;;6119777;23;20688;-95
2021/12/29 05:25:50;;;;;;;51.10;32.70;;;;;;;;;;6118803;23;20387;-95
2021/12/29 05:28:18;;;;;;;84.60;40.57;;;;;;;;;;6120299;23;20406;-95
2021/12/29 05:30:46;;;;;;;64.13;38.67;;;;;;;;;;6118611;23;20402;-96
2021/12/29 05:33:13;;;;;;;64.80;37.88;;;;;;;;;;6119307;23;20375;-95
2021/12/29 05:35:41;;;;;;;64.05;37.40;;;;;;;;;;6119166;23;20860;-96
2021/12/29 05:38:08;;;;;;;75.40;40.65;;;;;;;;;;6119716;23;20371;-95
2021/12/29 05:40:37;;;;;;;65.53;38.45;;;;;;;;;;6095118;23;20367;-96
2021/12/29 05:43:04;;;;;;;70.97;40.35;;;;;;;;;;6126647;23;20355;-95
2021/12/29 05:45:31;;;;;;;77.88;41.80;;;;;;;;;;6142911;23;20402;-95
2021/12/29 05:47:59;;;;;;;77.17;42.93;;;;;;;;;;6125744;23;20363;-95
2021/12/29 05:50:29;;;;;;;64.03;38.13;;;;;;;;;;6116209;23;20446;-95
2021/12/29 05:52:57;;;;;;;56.95;34.70;;;;;;;;;;6119317;23;20732;-95
2021/12/29 05:55:25;;;;;;;58.03;35.72;;;;;;;;;;6118692;23;20863;-95
2021/12/29 05:57:53;;;;;;;80.63;38.92;;;;;;;;;;6118283;23;20434;-95
2021/12/29 06:00:22;;;;;;;84.03;37.88;;;;;;;;;;6119178;23;20359;-95
2021/12/29 06:02:49;;;;;;;112.80;40.83;;;;;;;;;;6119095;23;20375;-95
2021/12/29 06:05:17;;;;;;;124.93;42.50;;;;;;;;;;6119003;23;20387;-96
2021/12/29 06:07:44;;;;;;;87.38;43.28;;;;;;;;;;6119304;23;20682;-95
2021/12/29 06:10:12;;;;;;;98.55;43.00;;;;;;;;;;6119874;23;20741;-95
2021/12/29 06:12:40;;;;;;;118.30;43.73;;;;;;;;;;6119419;23;20453;-95
2021/12/29 06:15:10;;;;;;;144.30;45.25;;;;;;;;;;6118904;23;20855;-96
2021/12/29 06:17:37;;;;;;;99.32;42.88;;;;;;;;;;6119341;23;20843;-95
2021/12/29 06:20:07;;;;;;;95.15;43.35;;;;;;;;;;6121016;23;20370;-93
2021/12/29 06:22:35;;;;;;;105.47;41.92;;;;;;;;;;6094702;23;20453;-94
2021/12/29 06:25:02;;;;;;;102.82;43.00;;;;;;;;;;6121957;23;20395;-96
2021/12/29 06:27:31;;;;;;;149.07;43.63;;;;;;;;;;6098476;23;20367;-96
2021/12/29 06:29:58;;;;;;;148.60;46.17;;;;;;;;;;6122834;23;20379;-96
2021/12/29 06:32:27;;;;;;;119.75;42.83;;;;;;;;;;6098260;23;20359;-96
2021/12/29 06:34:56;;;;;;;132.18;45.60;;;;;;;;;;6124199;23;20367;-96
2021/12/29 06:37:24;;;;;;;179.23;44.63;;;;;;;;;;6123870;23;20370;-96
2021/12/29 06:39:52;;;;;;;123.47;44.95;;;;;;;;;;6124079;23;20367;-96
2021/12/29 06:42:20;;;;;;;161.60;44.28;;;;;;;;;;6123926;23;20422;-96
2021/12/29 06:44:48;;;;;;;198.77;49.10;;;;;;;;;;6123770;23;20382;-96
2021/12/29 06:47:16;;;;;;;412.40;53.27;;;;;;;;;;6123493;23;20465;-96
2021/12/29 06:49:46;;;;;;;235.93;48.58;;;;;;;;;;6123764;23;20867;-96
2021/12/29 06:52:13;;;;;;;235.77;48.78;;;;;;;;;;6124164;23;20385;-95
2021/12/29 06:54:40;;;;;;;294.67;48.50;;;;;;;;;;6124274;23;20859;-96
2021/12/29 06:57:10;;;;;;;214.23;47.60;;;;;;;;;;6123636;23;20386;-96
2021/12/29 06:59:37;;;;;;;138.70;45.35;;;;;;;;;;6125548;23;20382;-96
2021/12/29 07:02:04;;;;;;;199.88;40.40;;;;;;;;;;6098991;23;20375;-96
2021/12/29 07:04:31;;;;;;;219.52;44.40;;;;;;;;;;6126624;23;20406;-96
2021/12/29 07:07:00;;;;;;;170.57;43.00;;;;;;;;;;6102050;23;20371;-96
2021/12/29 07:09:27;;;;;;;266.63;42.63;;;;;;;;;;6126508;23;20378;-96
2021/12/29 07:11:55;;;;;;;153.63;39.45;;;;;;;;;;6127409;23;20374;-96
2021/12/29 07:14:23;;;;;;;140.03;36.97;;;;;;;;;;6125725;23;20374;-96
2021/12/29 07:16:51;;;;;;;117.60;39.90;;;;;;;;;;6126008;23;20375;-96
2021/12/29 07:19:19;;;;;;;141.05;41.65;;;;;;;;;;6125853;23;20374;-96
2021/12/29 07:21:48;;;;;;;112.22;41.63;;;;;;;;;;6125974;23;20878;-96
2021/12/29 07:24:17;;;;;;;219.32;42.38;;;;;;;;;;6126466;23;20379;-96
2021/12/29 07:26:45;;;;;;;165.65;39.08;;;;;;;;;;6125848;23;20430;-96
2021/12/29 07:29:12;;;;;;;163.55;42.63;;;;;;;;;;6125959;23;20393;-96
2021/12/29 07:31:39;;;;;;;165.55;42.63;;;;;;;;;;6126573;23;20382;-96
2021/12/29 07:34:07;;;;;;;202.98;41.65;;;;;;;;;;6125652;23;20466;-96
2021/12/29 07:36:35;;;;;;;145.90;39.55;;;;;;;;;;6126920;23;20407;-96
2021/12/29 07:39:02;;;;;;;144.85;39.42;;;;;;;;;;6126684;23;20704;-96
2021/12/29 07:41:32;;;;;;;89.03;38.70;;;;;;;;;;6126698;23;20450;-96
2021/12/29 07:44:03;;;;;;;97.13;38.67;;;;;;;;;;6126899;23;20943;-96
2021/12/29 07:46:34;;;;;;;110.43;38.20;;;;;;;;;;6126593;23;20477;-96
2021/12/29 07:49:02;;;;;;;92.27;39.47;;;;;;;;;;6126505;23;20379;-96
2021/12/29 07:51:32;;;;;;;91.63;38.25;;;;;;;;;;6101892;23;21756;-96
2021/12/29 07:54:00;;;;;;;101.50;39.73;;;;;;;;;;6101877;23;20382;-96
2021/12/29 07:56:27;;;;;;;121.43;39.13;;;;;;;;;;6102648;23;20403;-96
2021/12/29 07:58:56;;;;;;;102.30;39.38;;;;;;;;;;6102791;23;20375;-96
2021/12/29 08:01:30;;;;;;;95.93;38.93;;;;;;;;;;6126947;23;20379;-95
2021/12/29 08:03:57;;;;;;;87.53;39.08;;;;;;;;;;6128174;23;20465;-96
2021/12/29 08:06:26;;;;;;;95.05;39.25;;;;;;;;;;6126676;23;20848;-96
2021/12/29 08:08:54;;;;;;;73.05;37.80;;;;;;;;;;6127445;23;20844;-96
2021/12/29 08:11:22;;;;;;;81.70;36.57;;;;;;;;;;6126983;23;20381;-96
2021/12/29 08:13:50;;;;;;;118.68;39.10;;;;;;;;;;6126953;23;20385;-96
2021/12/29 08:16:18;;;;;;;131.05;38.60;;;;;;;;;;6126623;23;20371;-96
2021/12/29 08:18:45;;;;;;;102.67;37.57;;;;;;;;;;6125802;23;20744;-96
2021/12/29 08:21:13;;;;;;;105.05;39.35;;;;;;;;;;6127500;23;20438;-96
2021/12/29 08:23:40;;;;;;;134.70;39.67;;;;;;;;;;6127174;23;20367;-96
2021/12/29 08:26:07;;;;;;;112.07;41.50;;;;;;;;;;6127072;23;20395;-96
2021/12/29 08:28:34;;;;;;;132.45;39.47;;;;;;;;;;6127564;23;20366;-96
2021/12/29 08:31:03;;;;;;;147.90;40.58;;;;;;;;;;6102743;23;20930;-96
2021/12/29 08:33:33;;;;;;;102.57;40.80;;;;;;;;;;6127504;23;20535;-96
2021/12/29 08:36:00;;;;;;;135.93;43.22;;;;;;;;;;6128567;23;20363;-96
2021/12/29 08:38:29;;;;;;;152.43;43.72;;;;;;;;;;6128628;23;20394;-96
2021/12/29 08:40:57;;;;;;;88.55;40.42;;;;;;;;;;6131898;23;20379;-96
2021/12/29 08:43:24;;;;;;;111.10;40.83;;;;;;;;;;6136359;23;20407;-96
2021/12/29 08:45:51;;;;;;;160.07;43.67;;;;;;;;;;6143406;23;20453;-94
2021/12/29 08:48:19;;;;;;;117.65;38.75;;;;;;;;;;6129199;23;20389;-96
2021/12/29 08:50:49;;;;;;;135.57;41.75;;;;;;;;;;6127974;23;20763;-96
2021/12/29 08:53:17;;;;;;;114.33;43.13;;;;;;;;;;6128243;23;20474;-96
2021/12/29 08:55:47;;;;;;;92.90;41.15;;;;;;;;;;6129898;23;20373;-96
2021/12/29 08:58:15;;;;;;;112.65;40.33;;;;;;;;;;6130629;23;20839;-96
2021/12/29 09:00:43;;;;;;;88.72;42.63;;;;;;;;;;6129051;23;20371;-95
2021/12/29 09:03:12;;;;;;;84.43;41.22;;;;;;;;;;6129501;23;20375;-96
2021/12/29 09:05:43;;;;;;;80.28;37.30;;;;;;;;;;6129353;23;20474;-96
2021/12/29 09:08:12;;;;;;;96.35;35.78;;;;;;;;;;6129674;23;20429;-96
2021/12/29 09:10:39;;;;;;;82.80;37.85;;;;;;;;;;6129296;23;20462;-96
2021/12/29 09:13:08;;;;;;;91.57;41.28;;;;;;;;;;6129066;23;20381;-96
2021/12/29 09:15:36;;;;;;;74.88;41.25;;;;;;;;;;6127419;23;20893;-96
2021/12/29 09:18:05;;;;;;;107.97;40.20;;;;;;;;;;6127062;23;20979;-96
2021/12/29 09:20:33;;;;;;;85.07;39.53;;;;;;;;;;6128456;23;20439;-96
2021/12/29 09:23:09;;;;;;;80.45;39.10;;;;;;;;;;6127146;23;20374;-96
2021/12/29 09:25:41;;;;;;;90.35;37.40;;;;;;;;;;6131061;23;20394;-95
2021/12/29 09:28:10;;;;;;;78.47;38.03;;;;;;;;;;6131952;23;20382;-96
2021/12/29 09:30:40;;;;;;;63.17;38.58;;;;;;;;;;6126819;23;20374;-96
2021/12/29 09:33:08;;;;;;;72.43;36.35;;;;;;;;;;6127284;23;20403;-96
2021/12/29 09:35:36;;;;;;;67.40;34.55;;;;;;;;;;6126553;23;20442;-96
2021/12/29 09:38:04;;;;;;;82.30;35.58;;;;;;;;;;6126791;23;20454;-96
2021/12/29 09:40:32;;;;;;;83.43;38.15;;;;;;;;;;6124026;23;20700;-94
2021/12/29 09:43:00;;;;;;;70.57;37.93;;;;;;;;;;6121658;23;20524;-93
2021/12/29 09:45:28;;;;;;;88.30;39.60;;;;;;;;;;6122290;23;20650;-93
2021/12/29 09:47:57;;;;;;;66.82;38.92;;;;;;;;;;6121187;23;20383;-93
2021/12/29 09:50:25;;;;;;;86.47;38.30;;;;;;;;;;6121392;23;20389;-93
2021/12/29 09:52:52;;;;;;;72.97;40.15;;;;;;;;;;6121564;23;20363;-93
2021/12/29 09:55:22;;;;;;;63.90;38.00;;;;;;;;;;6097265;23;20421;-93
2021/12/29 09:57:50;;;;;;;72.25;38.55;;;;;;;;;;6121659;23;20378;-94
2021/12/29 10:00:24;;;;;;;76.60;38.38;;;;;;;;;;6122241;23;20377;-94
2021/12/29 10:02:51;;;;;;;82.57;39.60;;;;;;;;;;6120019;23;20466;-87
2021/12/29 10:05:18;;;;;;;78.97;41.50;;;;;;;;;;6117264;23;20395;-88
2021/12/29 10:07:45;;;;;;;65.60;39.85;;;;;;;;;;6116683;23;20740;-88
2021/12/29 10:10:17;;;;;;;64.10;38.30;;;;;;;;;;6117725;23;20382;-88
2021/12/29 10:12:44;;;;;;;74.15;39.97;;;;;;;;;;6117591;23;20413;-88
2021/12/29 10:15:11;;;;;;;58.83;37.72;;;;;;;;;;6116669;23;20472;-88
2021/12/29 10:17:39;;;;;;;58.47;36.60;;;;;;;;;;6117350;23;20430;-88
2021/12/29 10:20:09;;;;;;;62.45;38.60;;;;;;;;;;6116933;23;20421;-88
2021/12/29 10:22:36;;;;;;;62.47;38.80;;;;;;;;;;6117798;23;20492;-87
2021/12/29 10:25:07;;;;;;;62.78;38.55;;;;;;;;;;6116554;23;20474;-88
2021/12/29 10:27:34;;;;;;;65.97;37.92;;;;;;;;;;6116479;23;20425;-87
2021/12/29 10:30:04;;;;;;;66.05;39.05;;;;;;;;;;6116706;23;20378;-88
2021/12/29 10:32:31;;;;;;;67.47;39.55;;;;;;;;;;6116415;23;20438;-88
2021/12/29 10:34:59;;;;;;;71.75;40.50;;;;;;;;;;6116282;23;20430;-88
2021/12/29 10:37:29;;;;;;;71.03;41.95;;;;;;;;;;6115601;23;20366;-88
2021/12/29 10:39:58;;;;;;;70.82;41.92;;;;;;;;;;6115780;23;20399;-88
2021/12/29 10:42:26;;;;;;;68.43;42.97;;;;;;;;;;6118561;23;20401;-88
2021/12/29 10:44:57;;;;;;;76.03;43.80;;;;;;;;;;6117638;23;20464;-87
2021/12/29 10:47:25;;;;;;;76.40;46.20;;;;;;;;;;6118185;23;20610;-88
2021/12/29 10:49:54;;;;;;;74.07;44.10;;;;;;;;;;6118358;23;20426;-88
2021/12/29 10:52:35;;;;;;;78.63;45.60;;;;;;;;;;6119194;23;20366;-88
2021/12/29 10:55:04;;;;;;;82.43;52.08;;;;;;;;;;6119561;23;20359;-87
2021/12/29 10:57:30;;;;;;;63.00;42.30;;;;;;;;;;6119083;23;20854;-87
2021/12/29 10:59:59;;;;;;;69.82;42.92;;;;;;;;;;6119257;23;20457;-86
2021/12/29 11:02:28;;;;;;;69.90;42.30;;;;;;;;;;6118752;23;20375;-86
2021/12/29 11:04:56;;;;;;;65.50;41.35;;;;;;;;;;6119218;23;20366;-86
2021/12/29 11:07:27;;;;;;;67.82;41.67;;;;;;;;;;6119395;23;20398;-87
2021/12/29 11:09:56;;;;;;;65.40;41.40;;;;;;;;;;6118530;23;20367;-87
2021/12/29 11:12:25;;;;;;;64.97;42.00;;;;;;;;;;6119248;23;20449;-87
2021/12/29 11:14:53;;;;;;;65.55;41.72;;;;;;;;;;6118718;23;20455;-84
2021/12/29 11:17:26;;;;;;;69.72;43.60;;;;;;;;;;6119196;23;20454;-86
2021/12/29 11:19:56;;;;;;;65.53;41.83;;;;;;;;;;6119389;23;20450;-86
2021/12/29 11:22:25;;;;;;;64.47;42.05;;;;;;;;;;6119134;23;20692;-86
2021/12/29 11:24:57;;;;;;;72.20;45.65;;;;;;;;;;6118531;23;20370;-87
2021/12/29 11:27:25;;;;;;;67.82;42.33;;;;;;;;;;6119296;23;20728;-87
2021/12/29 11:29:54;;;;;;;65.35;40.72;;;;;;;;;;6119051;23;20397;-86
2021/12/29 11:32:25;;;;;;;73.97;47.65;;;;;;;;;;6118937;23;20367;-86
2021/12/29 11:35:07;;;;;;;67.93;42.10;;;;;;;;;;6118437;23;20371;-87
2021/12/29 11:37:34;;;;;;;75.00;44.70;;;;;;;;;;6118710;23;20363;-87
2021/12/29 11:40:02;;;;;;;68.00;42.38;;;;;;;;;;6117877;23;20365;-86
2021/12/29 11:42:29;;;;;;;66.65;41.85;;;;;;;;;;6118358;23;20370;-86
2021/12/29 11:44:56;;;;;;;64.13;41.15;;;;;;;;;;6118272;23;20443;-87
2021/12/29 11:47:23;;;;;;;64.03;41.30;;;;;;;;;;6118259;23;20437;-88
2021/12/29 11:49:50;;;;;;;66.70;41.80;;;;;;;;;;6118493;23;20480;-88
2021/12/29 11:52:29;;;;;;;61.80;39.53;;;;;;;;;;6117890;23;20969;-85
2021/12/29 11:55:05;;;;;;;64.82;40.55;;;;;;;;;;6118504;23;20374;-86
2021/12/29 11:57:34;;;;;;;61.05;40.05;;;;;;;;;;6118471;23;20748;-85
2021/12/29 12:00:11;;;;;;;63.40;40.05;;;;;;;;;;6118857;23;20375;-86
2021/12/29 12:02:39;;;;;;;62.90;40.53;;;;;;;;;;6117823;23;20383;-86
2021/12/29 12:05:08;;;;;;;61.80;39.67;;;;;;;;;;6118462;23;20378;-85
2021/12/29 12:07:36;;;;;;;65.23;40.70;;;;;;;;;;6117684;23;20394;-86
2021/12/29 12:10:11;;;;;;;63.58;40.42;;;;;;;;;;6118238;23;20454;-86
2021/12/29 12:12:41;;;;;;;64.70;40.15;;;;;;;;;;6118325;23;20754;-87
2021/12/29 12:15:10;;;;;;;58.97;39.55;;;;;;;;;;6118677;23;20822;-83
2021/12/29 12:17:37;;;;;;;61.00;39.93;;;;;;;;;;6118232;23;20459;-85
2021/12/29 12:20:07;;;;;;;61.45;40.20;;;;;;;;;;6118421;23;20729;-85
2021/12/29 12:22:43;;;;;;;63.60;40.90;;;;;;;;;;6117739;23;20424;-86
2021/12/29 12:25:13;;;;;;;64.87;41.10;;;;;;;;;;6117669;23;25069;-84
2021/12/29 12:27:42;;;;;;;61.90;41.03;;;;;;;;;;6116771;23;20408;-85
2021/12/29 12:30:12;;;;;;;60.65;38.40;;;;;;;;;;6117892;23;20375;-84
2021/12/29 12:32:46;;;;;;;60.60;40.13;;;;;;;;;;6117925;23;20386;-84
2021/12/29 12:35:14;;;;;;;60.45;40.25;;;;;;;;;;6117725;23;25069;-85
2021/12/29 12:37:45;;;;;;;59.42;39.13;;;;;;;;;;6115738;23;20423;-85
2021/12/29 12:40:22;;;;;;;60.72;38.97;;;;;;;;;;6117444;23;20437;-85
2021/12/29 12:43:01;;;;;;;60.20;39.40;;;;;;;;;;6116136;23;25077;-85
2021/12/29 12:45:32;;;;;;;59.78;38.78;;;;;;;;;;6115604;23;20417;-86
2021/12/29 12:48:05;;;;;;;57.47;37.95;;;;;;;;;;6117620;23;20471;-86
2021/12/29 12:50:32;;;;;;;57.92;39.15;;;;;;;;;;6118620;23;20747;-86
2021/12/29 12:52:59;;;;;;;59.60;38.57;;;;;;;;;;6118152;23;20416;-86
2021/12/29 12:55:29;;;;;;;56.90;37.58;;;;;;;;;;6118836;23;20388;-86
2021/12/29 12:58:07;;;;;;;55.80;37.10;;;;;;;;;;6118716;23;20374;-86
2021/12/29 13:00:34;;;;;;;60.08;38.75;;;;;;;;;;6117249;23;20357;-86
2021/12/29 13:03:04;;;;;;;57.20;37.55;;;;;;;;;;6118228;23;20373;-86
2021/12/29 13:05:35;;;;;;;60.00;38.97;;;;;;;;;;6118012;23;20433;-86
2021/12/29 13:08:06;;;;;;;58.50;38.88;;;;;;;;;;6117885;23;20433;-86
2021/12/29 13:10:39;;;;;;;60.15;39.13;;;;;;;;;;6117935;23;20386;-86
2021/12/29 13:13:11;;;;;;;60.38;39.15;;;;;;;;;;6117706;23;20461;-86
2021/12/29 13:15:39;;;;;;;85.22;47.67;;;;;;;;;;6118210;23;20430;-86
2021/12/29 13:18:07;;;;;;;60.92;39.30;;;;;;;;;;6118081;23;20363;-86
2021/12/29 13:20:34;;;;;;;60.45;39.00;;;;;;;;;;6117888;23;20398;-85
2021/12/29 13:23:01;;;;;;;59.67;39.07;;;;;;;;;;6118605;23;20357;-87
2021/12/29 13:25:28;;;;;;;61.38;39.28;;;;;;;;;;6118259;23;20423;-88
2021/12/29 13:28:02;;;;;;;59.67;38.55;;;;;;;;;;6118321;23;20382;-87
2021/12/29 13:30:32;;;;;;;58.70;38.78;;;;;;;;;;6118425;23;25135;-87
2021/12/29 13:33:01;;;;;;;59.90;40.47;;;;;;;;;;6118432;23;20459;-87
2021/12/29 13:35:30;;;;;;;57.95;38.90;;;;;;;;;;6118563;23;20377;-87
2021/12/29 13:37:59;;;;;;;59.03;39.80;;;;;;;;;;6118835;23;20375;-87
2021/12/29 13:40:31;;;;;;;58.15;38.42;;;;;;;;;;6118022;23;20370;-87
2021/12/29 13:43:00;;;;;;;62.47;40.20;;;;;;;;;;6118189;23;20403;-87
2021/12/29 13:45:28;;;;;;;58.22;39.38;;;;;;;;;;6118694;23;20437;-86
2021/12/29 13:47:56;;;;;;;61.77;40.83;;;;;;;;;;6117927;23;20506;-87
2021/12/29 13:50:23;;;;;;;60.53;40.88;;;;;;;;;;6117693;23;20400;-87
2021/12/29 13:52:58;;;;;;;62.53;40.17;;;;;;;;;;6117791;23;20418;-87
2021/12/29 13:55:27;;;;;;;61.87;40.90;;;;;;;;;;6118352;23;25059;-87
2021/12/29 13:57:55;;;;;;;63.72;41.58;;;;;;;;;;6118576;23;20374;-87
2021/12/29 14:00:23;;;;;;;61.13;40.85;;;;;;;;;;6117640;23;20763;-87
2021/12/29 14:02:50;;;;;;;61.70;40.80;;;;;;;;;;6117253;23;20368;-87
2021/12/29 14:05:17;;;;;;;76.25;46.22;;;;;;;;;;6117914;23;20664;-86
2021/12/29 14:07:44;;;;;;;62.28;40.75;;;;;;;;;;6117526;23;20858;-87
2021/12/29 14:10:14;;;;;;;61.80;41.50;;;;;;;;;;6117795;23;20363;-87
2021/12/29 14:12:42;;;;;;;61.03;41.13;;;;;;;;;;6117665;23;20409;-87
2021/12/29 14:15:16;;;;;;;60.97;40.40;;;;;;;;;;6118055;23;20502;-86
2021/12/29 14:17:47;;;;;;;63.90;41.90;;;;;;;;;;6118055;23;25094;-87
2021/12/29 14:20:16;;;;;;;63.30;41.13;;;;;;;;;;6114141;23;20372;-86
2021/12/29 14:22:43;;;;;;;60.05;40.22;;;;;;;;;;6116780;23;20422;-86